createdAt,value
2018-12-22T00:00:14.490Z,45.8
2018-12-22T00:01:04.284Z,45.8
2018-12-22T00:01:55.350Z,45.7
2018-12-22T00:02:45.002Z,45.7
2018-12-22T00:03:34.502Z,45.7
2018-12-22T00:04:24.517Z,45.7
2018-12-22T00:05:14.577Z,45.7
2018-12-22T00:06:04.384Z,45.6
2018-12-22T00:06:54.709Z,45.7
2018-12-22T00:07:45.271Z,45.6
2018-12-22T00:08:34.514Z,45.6
2018-12-22T00:09:25.142Z,45.6
2018-12-22T00:10:14.640Z,45.6
2018-12-22T00:11:04.697Z,45.6
2018-12-22T00:11:55.392Z,45.6
2018-12-22T00:12:45.374Z,45.6
2018-12-22T00:13:35.394Z,45.6
2018-12-22T00:14:25.479Z,45.6
2018-12-22T00:32:37.492Z,45.3
2018-12-22T00:33:27.785Z,45.3
2018-12-22T00:34:18.119Z,45.3
2018-12-22T00:35:07.910Z,45.3
2018-12-22T00:35:57.994Z,45.3
2018-12-22T00:36:48.283Z,45.3
2018-12-22T00:37:38.574Z,45.3
2018-12-22T00:38:28.415Z,45.3
2018-12-22T00:39:18.157Z,45.3
2018-12-22T00:40:08.225Z,45.3
2018-12-22T00:40:58.552Z,45.3
2018-12-22T00:41:48.362Z,45.3
2018-12-22T00:42:39.062Z,45.3
2018-12-22T00:43:27.620Z,45.3
2018-12-22T00:44:18.230Z,45.2
2018-12-22T00:45:08.834Z,45.2
2018-12-22T00:45:58.713Z,45.2
2018-12-22T00:46:48.683Z,45.2
2018-12-22T00:47:38.728Z,45.2
2018-12-22T00:48:29.130Z,45.2
2018-12-22T00:49:18.571Z,45.1
2018-12-22T00:50:08.915Z,45.1
2018-12-22T00:50:58.405Z,45.1
2018-12-22T00:51:49.095Z,45.1
2018-12-22T00:52:38.587Z,45.1
2018-12-22T00:53:29.410Z,45.1
2018-12-22T00:54:21.178Z,45.1
2018-12-22T00:55:09.253Z,45.1
2018-12-22T00:55:59.380Z,45.1
2018-12-22T00:56:49.358Z,45.1
2018-12-22T00:57:39.468Z,45.1
2018-12-22T00:58:34.383Z,45.1
2018-12-22T00:59:19.530Z,45.1
2018-12-22T01:00:09.725Z,45.1
2018-12-22T01:00:59.958Z,45
2018-12-22T01:01:49.158Z,45
2018-12-22T01:02:40.000Z,45
2018-12-22T01:03:29.815Z,45
2018-12-22T01:04:20.401Z,45
2018-12-22T01:05:09.648Z,45
2018-12-22T01:05:59.992Z,44.9
2018-12-22T01:06:50.070Z,44.9
2018-12-22T01:07:40.368Z,44.9
2018-12-22T01:08:30.165Z,44.9
2018-12-22T01:09:19.948Z,44.9
2018-12-22T01:10:10.543Z,44.9
2018-12-22T01:11:00.348Z,44.9
2018-12-22T01:11:50.448Z,44.9
2018-12-22T01:12:40.188Z,44.9
2018-12-22T01:13:30.498Z,44.9
2018-12-22T01:14:20.298Z,44.9
2018-12-22T01:15:10.610Z,44.9
2018-12-22T01:16:00.952Z,44.9
2018-12-22T01:16:50.470Z,44.9
2018-12-22T01:17:41.102Z,44.8
2018-12-22T01:18:30.849Z,44.8
2018-12-22T01:19:21.215Z,44.8
2018-12-22T01:20:10.660Z,44.8
2018-12-22T01:21:00.738Z,44.8
2018-12-22T01:21:51.082Z,44.8
2018-12-22T01:22:40.282Z,44.8
2018-12-22T01:23:31.462Z,44.8
2018-12-22T01:24:21.586Z,44.8
2018-12-22T01:25:11.283Z,44.8
2018-12-22T01:26:01.327Z,44.8
2018-12-22T01:26:51.675Z,44.8
2018-12-22T01:27:42.039Z,44.7
2018-12-22T01:28:40.322Z,44.7
2018-12-22T01:29:21.612Z,44.7
2018-12-22T01:30:11.654Z,44.7
2018-12-22T01:31:01.729Z,44.7
2018-12-22T01:31:51.471Z,44.6
2018-12-22T01:32:42.075Z,44.6
2018-12-22T01:33:31.872Z,44.6
2018-12-22T01:34:21.638Z,44.6
2018-12-22T01:35:12.252Z,44.6
2018-12-22T01:36:02.319Z,44.6
2018-12-22T01:36:52.091Z,44.6
2018-12-22T01:37:41.608Z,44.6
2018-12-22T01:38:32.174Z,44.6
2018-12-22T01:39:21.727Z,44.6
2018-12-22T01:40:12.592Z,44.6
2018-12-22T01:41:02.622Z,44.6
2018-12-22T01:41:52.432Z,44.6
2018-12-22T01:42:42.802Z,44.6
2018-12-22T01:43:32.842Z,44.6
2018-12-22T01:44:22.599Z,44.6
2018-12-22T01:45:12.649Z,44.5
2018-12-22T01:46:02.357Z,44.5
2018-12-22T01:46:52.220Z,44.5
2018-12-22T01:47:42.289Z,44.5
2018-12-22T01:48:32.734Z,44.5
2018-12-22T01:49:22.921Z,44.5
2018-12-22T01:50:13.026Z,44.4
2018-12-22T01:51:03.488Z,44.5
2018-12-22T01:51:53.303Z,44.4
2018-12-22T01:52:42.636Z,44.4
2018-12-22T01:53:33.478Z,44.4
2018-12-22T01:54:22.996Z,44.4
2018-12-22T01:55:13.044Z,44.4
2018-12-22T01:56:02.835Z,44.4
2018-12-22T01:56:53.451Z,44.4
2018-12-22T01:57:42.952Z,44.4
2018-12-22T01:58:32.998Z,44.4
2018-12-22T01:59:23.633Z,44.4
2018-12-22T02:00:13.673Z,44.4
2018-12-22T02:01:03.463Z,44.4
2018-12-22T02:01:54.064Z,44.3
2018-12-22T02:02:43.563Z,44.3
2018-12-22T02:03:34.133Z,44.3
2018-12-22T02:04:23.673Z,44.3
2018-12-22T02:05:14.298Z,44.3
2018-12-22T02:06:04.060Z,44.3
2018-12-22T02:06:54.402Z,44.3
2018-12-22T02:07:44.458Z,44.3
2018-12-22T02:08:33.972Z,44.3
2018-12-22T02:09:24.083Z,44.3
2018-12-22T02:10:14.715Z,44.3
2018-12-22T02:11:04.405Z,44.3
2018-12-22T02:11:54.460Z,44.2
2018-12-22T02:12:44.790Z,44.2
2018-12-22T02:13:34.567Z,44.2
2018-12-22T02:14:24.914Z,44.2
2018-12-22T02:15:14.675Z,44.2
2018-12-22T02:16:04.467Z,44.2
2018-12-22T02:16:54.790Z,44.2
2018-12-22T02:17:45.132Z,44.1
2018-12-22T02:18:34.887Z,44.1
2018-12-22T02:19:25.280Z,44.1
2018-12-22T02:20:14.483Z,44.1
2018-12-22T02:21:05.078Z,44.1
2018-12-22T02:21:55.150Z,44.1
2018-12-22T02:22:45.462Z,44.1
2018-12-22T02:23:35.830Z,44.1
2018-12-22T02:24:25.396Z,44.1
2018-12-22T02:25:15.642Z,44.1
2018-12-22T02:26:05.150Z,44.1
2018-12-22T02:26:54.983Z,44.1
2018-12-22T02:27:45.823Z,44.1
2018-12-22T02:28:35.049Z,44.1
2018-12-22T02:29:26.259Z,44
2018-12-22T02:30:15.752Z,44.1
2018-12-22T02:31:05.552Z,44
2018-12-22T02:31:55.594Z,44
2018-12-22T02:32:46.016Z,44
2018-12-22T02:33:36.386Z,44
2018-12-22T02:34:25.789Z,44
2018-12-22T02:35:16.319Z,44
2018-12-22T02:36:05.994Z,43.9
2018-12-22T02:36:55.896Z,43.9
2018-12-22T02:37:45.949Z,43.9
2018-12-22T02:38:36.566Z,43.9
2018-12-22T02:39:26.436Z,43.9
2018-12-22T02:40:16.266Z,43.9
2018-12-22T02:41:06.743Z,43.9
2018-12-22T02:41:56.476Z,43.9
2018-12-22T02:42:46.559Z,43.9
2018-12-22T02:43:36.336Z,43.9
2018-12-22T02:44:26.690Z,43.8
2018-12-22T02:45:17.031Z,43.7
2018-12-22T02:46:07.089Z,43.6
2018-12-22T02:46:56.563Z,43.6
2018-12-22T02:47:47.159Z,43.5
2018-12-22T02:48:36.558Z,43.5
2018-12-22T02:49:27.083Z,43.6
2018-12-22T02:50:17.390Z,43.6
2018-12-22T02:51:06.568Z,43.8
2018-12-22T02:51:57.171Z,43.9
2018-12-22T02:52:47.487Z,44.1
2018-12-22T02:53:37.664Z,44.3
2018-12-22T02:54:27.628Z,44.6
2018-12-22T02:55:17.404Z,44.8
2018-12-22T02:56:07.551Z,45
2018-12-22T02:56:57.500Z,45.2
2018-12-22T02:57:47.302Z,45.4
2018-12-22T02:58:37.256Z,45.7
2018-12-22T02:59:27.703Z,45.9
2018-12-22T03:00:17.451Z,46.1
2018-12-22T03:01:07.238Z,46.3
2018-12-22T03:01:57.871Z,46.6
2018-12-22T03:02:47.945Z,46.8
2018-12-22T03:03:38.254Z,47
2018-12-22T03:04:27.285Z,47.3
2018-12-22T03:05:17.515Z,47.4
2018-12-22T03:06:08.170Z,47.7
2018-12-22T03:06:58.105Z,47.9
2018-12-22T03:07:47.991Z,48.2
2018-12-22T03:08:38.627Z,48.4
2018-12-22T03:09:28.462Z,48.6
2018-12-22T03:10:19.215Z,48.8
2018-12-22T03:11:08.335Z,49.1
2018-12-22T03:11:58.807Z,49.3
2018-12-22T03:12:48.652Z,49.5
2018-12-22T03:13:38.352Z,49.8
2018-12-22T03:14:29.022Z,50
2018-12-22T03:15:18.777Z,50.2
2018-12-22T03:16:08.114Z,50.4
2018-12-22T03:16:58.824Z,50.6
2018-12-22T03:17:48.700Z,50.9
2018-12-22T03:18:38.504Z,51.1
2018-12-22T03:19:28.837Z,51.3
2018-12-22T03:20:18.702Z,51.6
2018-12-22T03:21:08.409Z,51.8
2018-12-22T03:21:58.026Z,52
2018-12-22T03:22:48.847Z,52.3
2018-12-22T03:23:38.566Z,52.5
2018-12-22T03:24:29.022Z,52.7
2018-12-22T03:25:19.293Z,52.9
2018-12-22T03:26:09.289Z,53.2
2018-12-22T03:26:59.378Z,53.4
2018-12-22T03:27:50.159Z,53.6
2018-12-22T03:28:39.682Z,53.9
2018-12-22T03:29:29.604Z,54.1
2018-12-22T03:30:20.113Z,54.3
2018-12-22T03:31:10.137Z,54.5
2018-12-22T03:32:00.295Z,54.8
2018-12-22T03:32:50.050Z,54.9
2018-12-22T03:33:40.111Z,55.2
2018-12-22T03:34:29.841Z,55.4
2018-12-22T03:35:20.227Z,55.6
2018-12-22T03:36:10.508Z,55.9
2018-12-22T03:37:00.502Z,56.1
2018-12-22T03:37:50.694Z,56.3
2018-12-22T03:38:40.373Z,56.6
2018-12-22T03:39:30.384Z,56.8
2018-12-22T03:40:20.458Z,57
2018-12-22T03:41:10.788Z,57.3
2018-12-22T03:42:00.857Z,57.4
2018-12-22T03:42:50.632Z,57.6
2018-12-22T03:43:40.135Z,57.7
2018-12-22T03:45:20.957Z,57.8
2018-12-22T03:46:10.883Z,57.9
2018-12-22T03:47:01.183Z,57.9
2018-12-22T03:47:50.688Z,57.9
2018-12-22T03:48:40.838Z,58
2018-12-22T03:49:31.410Z,58
2018-12-22T03:50:21.115Z,58
2018-12-22T03:51:11.164Z,58
2018-12-22T03:52:00.465Z,58
2018-12-22T03:52:51.599Z,58
2018-12-22T03:53:41.640Z,58
2018-12-22T03:54:31.457Z,58
2018-12-22T03:55:21.252Z,58
2018-12-22T03:56:11.526Z,58
2018-12-22T03:57:02.119Z,58
2018-12-22T03:57:51.343Z,58
2018-12-22T03:58:41.132Z,58
2018-12-22T03:59:32.025Z,58
2018-12-22T04:00:21.237Z,58
2018-12-22T04:01:12.437Z,58
2018-12-22T04:02:02.190Z,57.9
2018-12-22T04:02:51.709Z,57.9
2018-12-22T04:03:42.145Z,57.9
2018-12-22T04:04:32.365Z,57.9
2018-12-22T04:05:22.032Z,57.9
2018-12-22T04:06:12.265Z,57.9
2018-12-22T04:07:01.460Z,57.9
2018-12-22T04:07:52.303Z,57.9
2018-12-22T04:08:42.473Z,57.9
2018-12-22T04:09:32.465Z,57.9
2018-12-22T04:10:22.283Z,57.9
2018-12-22T04:11:12.541Z,57.9
2018-12-22T04:12:02.638Z,57.9
2018-12-22T04:12:52.150Z,57.9
2018-12-22T04:13:43.388Z,57.9
2018-12-22T04:14:32.996Z,57.9
2018-12-22T04:15:22.250Z,57.8
2018-12-22T04:16:12.349Z,57.8
2018-12-22T04:17:02.400Z,57.8
2018-12-22T04:17:52.690Z,57.8
2018-12-22T04:18:43.308Z,57.8
2018-12-22T04:20:23.443Z,57.8
2018-12-22T04:26:12.484Z,57.7
2018-12-22T04:27:03.639Z,57.7
2018-12-22T04:27:53.947Z,57.7
2018-12-22T04:28:44.000Z,57.7
2018-12-22T04:29:37.479Z,57.7
2018-12-22T04:30:24.170Z,57.7
2018-12-22T04:31:13.884Z,57.7
2018-12-22T04:32:04.241Z,57.7
2018-12-22T04:32:54.001Z,57.7
2018-12-22T04:33:44.366Z,57.6
2018-12-22T04:34:34.443Z,57.6
2018-12-22T04:35:24.446Z,57.6
2018-12-22T04:36:13.906Z,57.6
2018-12-22T04:37:04.014Z,57.6
2018-12-22T04:37:54.601Z,57.6
2018-12-22T04:38:44.661Z,57.6
2018-12-22T04:39:34.470Z,57.6
2018-12-22T04:40:24.231Z,57.6
2018-12-22T04:41:14.074Z,57.6
2018-12-22T04:42:04.890Z,57.6
2018-12-22T04:42:54.720Z,57.6
2018-12-22T04:43:45.066Z,57.6
2018-12-22T04:44:34.508Z,57.6
2018-12-22T05:01:54.894Z,57.4
2018-12-22T05:02:44.921Z,57.4
2018-12-22T05:03:34.999Z,57.4
2018-12-22T05:04:25.031Z,57.4
2018-12-22T05:05:15.134Z,57.4
2018-12-22T05:06:05.433Z,57.3
2018-12-22T05:06:55.510Z,57.4
2018-12-22T05:07:45.536Z,57.3
2018-12-22T05:08:35.650Z,57.3
2018-12-22T05:09:25.464Z,57.3
2018-12-22T05:10:15.423Z,57.3
2018-12-22T05:11:05.891Z,57.3
2018-12-22T05:11:55.831Z,57.3
2018-12-22T05:12:44.751Z,57.3
2018-12-22T05:13:35.976Z,57.3
2018-12-22T05:14:25.836Z,57.3
2018-12-22T05:15:16.055Z,57.3
2018-12-22T05:16:06.123Z,57.3
2018-12-22T05:16:55.612Z,57.3
2018-12-22T05:17:46.188Z,57.3
2018-12-22T05:18:35.963Z,57.3
2018-12-22T05:19:25.769Z,57.3
2018-12-22T05:20:18.378Z,57.2
2018-12-22T05:21:06.412Z,57.2
2018-12-22T05:21:56.196Z,57.2
2018-12-22T05:22:46.583Z,57.2
2018-12-22T05:23:36.305Z,57.2
2018-12-22T05:24:26.427Z,57.2
2018-12-22T05:25:16.146Z,57.1
2018-12-22T05:26:06.475Z,57.1
2018-12-22T05:26:56.814Z,57.1
2018-12-22T05:27:46.304Z,57.2
2018-12-22T05:28:36.367Z,57.1
2018-12-22T05:29:26.976Z,57.1
2018-12-22T05:30:16.757Z,57.1
2018-12-22T05:31:06.829Z,57.1
2018-12-22T05:31:56.878Z,57.1
2018-12-22T05:32:47.231Z,57.1
2018-12-22T05:33:37.004Z,57.1
2018-12-22T05:34:27.469Z,57.1
2018-12-22T05:35:16.970Z,57.1
2018-12-22T05:36:07.383Z,57.1
2018-12-22T05:36:57.496Z,57.1
2018-12-22T05:37:47.571Z,57.1
2018-12-22T05:38:37.061Z,57.1
2018-12-22T05:39:27.676Z,57.1
2018-12-22T05:40:17.446Z,57.1
2018-12-22T05:41:07.252Z,57
2018-12-22T05:41:57.363Z,57
2018-12-22T05:42:47.856Z,57
2018-12-22T05:43:37.429Z,57
2018-12-22T05:44:27.718Z,57
2018-12-22T05:45:18.043Z,57
2018-12-22T05:46:07.273Z,57
2018-12-22T05:46:58.193Z,56.9
2018-12-22T05:47:48.023Z,56.9
2018-12-22T05:48:38.002Z,56.9
2018-12-22T05:49:27.783Z,56.9
2018-12-22T05:50:18.387Z,56.9
2018-12-22T05:51:08.167Z,56.9
2018-12-22T05:51:58.497Z,56.9
2018-12-22T05:52:48.795Z,56.9
2018-12-22T05:53:38.335Z,56.9
2018-12-22T05:54:28.702Z,56.9
2018-12-22T05:55:18.445Z,56.9
2018-12-22T05:56:08.792Z,56.9
2018-12-22T05:56:58.296Z,56.9
2018-12-22T05:57:48.340Z,56.9
2018-12-22T05:58:38.645Z,56.9
2018-12-22T05:59:28.745Z,56.9
2018-12-22T06:00:18.240Z,56.9
2018-12-22T06:01:08.926Z,56.9
2018-12-22T06:01:58.900Z,56.8
2018-12-22T06:02:49.232Z,56.8
2018-12-22T06:03:38.737Z,56.8
2018-12-22T06:04:29.074Z,56.8
2018-12-22T06:05:20.749Z,56.8
2018-12-22T06:06:09.174Z,56.8
2018-12-22T06:06:58.949Z,56.8
2018-12-22T06:07:49.304Z,56.8
2018-12-22T06:08:39.065Z,56.8
2018-12-22T06:09:29.406Z,56.8
2018-12-22T06:10:19.476Z,56.8
2018-12-22T06:11:09.516Z,56.8
2018-12-22T06:11:59.697Z,56.8
2018-12-22T06:12:49.647Z,56.8
2018-12-22T06:13:39.961Z,56.8
2018-12-22T06:14:30.024Z,56.7
2018-12-22T06:15:18.968Z,56.7
2018-12-22T06:16:09.586Z,56.7
2018-12-22T06:17:00.201Z,56.7
2018-12-22T06:17:50.251Z,56.7
2018-12-22T06:18:39.756Z,56.7
2018-12-22T06:19:29.811Z,56.7
2018-12-22T06:20:19.600Z,56.7
2018-12-22T06:21:10.194Z,56.6
2018-12-22T06:22:00.016Z,56.6
2018-12-22T06:22:50.354Z,56.6
2018-12-22T06:23:40.380Z,56.6
2018-12-22T06:24:30.199Z,56.6
2018-12-22T06:25:20.539Z,56.6
2018-12-22T06:26:10.576Z,56.6
2018-12-22T06:27:00.034Z,56.6
2018-12-22T06:27:50.376Z,56.6
2018-12-22T06:28:40.688Z,56.6
2018-12-22T06:29:31.043Z,56.6
2018-12-22T06:30:21.090Z,56.6
2018-12-22T06:31:10.585Z,56.5
2018-12-22T06:32:00.928Z,56.6
2018-12-22T06:32:50.718Z,56.6
2018-12-22T06:33:41.330Z,56.6
2018-12-22T06:34:30.560Z,56.5
2018-12-22T06:35:21.441Z,56.5
2018-12-22T06:36:10.930Z,56.5
2018-12-22T06:37:01.270Z,56.5
2018-12-22T06:37:51.326Z,56.5
2018-12-22T06:38:42.958Z,56.5
2018-12-22T06:39:31.442Z,56.5
2018-12-22T06:40:21.457Z,56.4
2018-12-22T06:41:11.852Z,56.5
2018-12-22T06:42:01.167Z,56.4
2018-12-22T06:42:51.402Z,56.4
2018-12-22T06:43:41.447Z,56.4
2018-12-22T06:44:32.077Z,56.4
2018-12-22T06:45:21.627Z,56.4
2018-12-22T06:46:12.007Z,56.4
2018-12-22T06:47:02.242Z,56.4
2018-12-22T06:47:54.235Z,56.4
2018-12-22T06:48:41.799Z,56.4
2018-12-22T06:49:32.389Z,56.4
2018-12-22T06:50:22.179Z,56.4
2018-12-22T06:51:12.509Z,56.4
2018-12-22T06:52:02.673Z,56.4
2018-12-22T06:52:52.110Z,56.3
2018-12-22T06:53:44.667Z,56.3
2018-12-22T06:54:32.499Z,56.3
2018-12-22T06:55:23.094Z,56.3
2018-12-22T06:56:12.564Z,56.3
2018-12-22T06:57:02.869Z,56.3
2018-12-22T06:57:52.476Z,56.3
2018-12-22T06:58:43.076Z,56.3
2018-12-22T06:59:33.111Z,56.3
2018-12-22T07:00:22.874Z,56.3
2018-12-22T07:01:13.506Z,56.3
2018-12-22T07:02:03.501Z,56.3
2018-12-22T07:02:53.358Z,56.3
2018-12-22T07:03:43.338Z,56.3
2018-12-22T07:04:32.964Z,56.3
2018-12-22T07:05:23.179Z,56.2
2018-12-22T07:06:13.486Z,56.3
2018-12-22T07:07:03.571Z,56.2
2018-12-22T07:07:53.348Z,56.2
2018-12-22T07:08:43.398Z,56.2
2018-12-22T07:09:33.186Z,56.2
2018-12-22T07:10:25.465Z,56.2
2018-12-22T07:11:14.146Z,56.2
2018-12-22T07:12:03.344Z,56.2
2018-12-22T07:12:52.648Z,56.1
2018-12-22T07:13:43.815Z,56.1
2018-12-22T07:14:33.533Z,56.1
2018-12-22T07:15:23.858Z,56.1
2018-12-22T07:16:13.653Z,56.1
2018-12-22T07:17:04.078Z,56.1
2018-12-22T07:17:54.018Z,56.1
2018-12-22T07:18:43.533Z,56.1
2018-12-22T07:19:34.437Z,56.1
2018-12-22T07:20:24.460Z,56.1
2018-12-22T07:21:14.553Z,56.1
2018-12-22T07:22:03.825Z,56.1
2018-12-22T07:22:54.117Z,56.1
2018-12-22T07:23:44.687Z,56.1
2018-12-22T07:24:34.485Z,56.1
2018-12-22T07:25:24.812Z,56
2018-12-22T07:26:14.290Z,56
2018-12-22T07:27:03.995Z,56
2018-12-22T07:27:54.699Z,56
2018-12-22T07:28:44.757Z,56
2018-12-22T07:29:34.814Z,56
2018-12-22T07:30:29.914Z,56
2018-12-22T07:31:14.912Z,56
2018-12-22T07:32:04.964Z,55.9
2018-12-22T07:33:01.114Z,55.9
2018-12-22T07:33:44.826Z,55.9
2018-12-22T07:34:34.604Z,55.9
2018-12-22T07:35:24.752Z,55.9
2018-12-22T07:36:15.269Z,55.9
2018-12-22T07:37:05.309Z,55.9
2018-12-22T07:37:55.633Z,55.9
2018-12-22T07:38:46.036Z,55.9
2018-12-22T07:39:35.277Z,55.9
2018-12-22T07:40:25.059Z,55.9
2018-12-22T07:41:15.123Z,55.9
2018-12-22T07:42:05.704Z,55.9
2018-12-22T07:42:55.241Z,55.8
2018-12-22T07:43:45.286Z,55.8
2018-12-22T07:44:35.624Z,55.8
2018-12-22T07:45:25.396Z,55.8
2018-12-22T07:46:15.654Z,55.8
2018-12-22T07:47:06.038Z,55.8
2018-12-22T07:47:55.283Z,55.8
2018-12-22T07:48:45.951Z,55.8
2018-12-22T07:49:35.683Z,55.8
2018-12-22T07:50:26.023Z,55.8
2018-12-22T07:51:15.860Z,55.8
2018-12-22T07:52:06.374Z,55.8
2018-12-22T07:52:56.386Z,55.8
2018-12-22T07:53:46.432Z,55.8
2018-12-22T07:54:36.481Z,55.8
2018-12-22T07:55:26.264Z,55.8
2018-12-22T07:56:16.594Z,55.7
2018-12-22T07:57:06.920Z,55.7
2018-12-22T07:57:56.433Z,55.7
2018-12-22T07:58:47.047Z,55.7
2018-12-22T07:59:36.815Z,55.7
2018-12-22T08:00:35.337Z,55.7
2018-12-22T08:01:16.985Z,55.7
2018-12-22T08:02:06.725Z,55.7
2018-12-22T08:02:57.300Z,55.7
2018-12-22T08:03:47.115Z,55.6
2018-12-22T08:04:37.156Z,55.6
2018-12-22T08:05:27.217Z,55.6
2018-12-22T08:06:16.800Z,55.6
2018-12-22T08:07:07.592Z,55.6
2018-12-22T08:07:57.089Z,55.6
2018-12-22T08:08:47.328Z,55.6
2018-12-22T08:09:37.772Z,55.6
2018-12-22T08:10:27.557Z,55.6
2018-12-22T08:11:17.625Z,55.6
2018-12-22T08:12:07.107Z,55.6
2018-12-22T08:12:57.722Z,55.6
2018-12-22T08:13:48.051Z,55.6
2018-12-22T08:14:37.919Z,55.5
2018-12-22T08:15:27.887Z,55.6
2018-12-22T08:16:18.252Z,55.6
2018-12-22T08:17:08.011Z,55.5
2018-12-22T08:17:58.336Z,55.5
2018-12-22T08:18:48.391Z,55.5
2018-12-22T08:19:38.519Z,55.4
2018-12-22T08:20:27.470Z,55.5
2018-12-22T08:21:17.831Z,55.5
2018-12-22T08:22:10.248Z,55.5
2018-12-22T08:22:58.298Z,55.4
2018-12-22T08:23:47.699Z,55.4
2018-12-22T08:24:38.508Z,55.4
2018-12-22T08:25:28.563Z,55.4
2018-12-22T08:26:19.214Z,55.4
2018-12-22T08:27:08.676Z,55.4
2018-12-22T08:27:58.557Z,55.4
2018-12-22T08:28:48.806Z,55.4
2018-12-22T08:29:38.966Z,55.4
2018-12-22T08:30:29.168Z,55.4
2018-12-22T08:31:18.953Z,55.4
2018-12-22T08:32:09.303Z,55.4
2018-12-22T08:32:59.355Z,55.4
2018-12-22T08:33:49.148Z,55.4
2018-12-22T08:34:39.191Z,55.3
2018-12-22T08:35:29.495Z,55.3
2018-12-22T08:36:19.190Z,55.3
2018-12-22T08:37:09.662Z,55.3
2018-12-22T08:37:59.125Z,55.3
2018-12-22T08:38:49.468Z,55.3
2018-12-22T08:39:39.318Z,55.3
2018-12-22T08:40:29.855Z,55.3
2018-12-22T08:41:18.818Z,55.3
2018-12-22T08:42:10.268Z,55.3
2018-12-22T08:42:59.753Z,55.3
2018-12-22T08:43:49.512Z,55.3
2018-12-22T08:44:39.348Z,55.3
2018-12-22T08:45:29.662Z,55.3
2018-12-22T08:46:19.688Z,55.2
2018-12-22T08:47:10.555Z,55.3
2018-12-22T08:48:00.343Z,55.2
2018-12-22T08:48:49.588Z,55.2
2018-12-22T08:49:40.187Z,55.2
2018-12-22T08:50:30.821Z,55.2
2018-12-22T08:51:20.313Z,55.2
2018-12-22T08:52:10.607Z,55.2
2018-12-22T08:53:00.527Z,55.1
2018-12-22T08:53:50.187Z,55.1
2018-12-22T08:54:40.532Z,55.1
2018-12-22T08:55:30.842Z,55.1
2018-12-22T08:56:20.618Z,55.1
2018-12-22T08:57:10.146Z,55.1
2018-12-22T08:58:01.128Z,55.1
2018-12-22T08:58:51.109Z,55.1
2018-12-22T08:59:41.124Z,55.1
2018-12-22T09:00:31.211Z,55.1
2018-12-22T09:16:20.760Z,54.9
2018-12-22T09:17:11.115Z,54.9
2018-12-22T09:18:01.430Z,54.9
2018-12-22T09:18:51.173Z,54.9
2018-12-22T09:19:41.260Z,54.9
2018-12-22T09:20:33.450Z,54.9
2018-12-22T09:21:21.764Z,54.9
2018-12-22T09:22:11.707Z,54.9
2018-12-22T09:23:01.498Z,54.9
2018-12-22T09:23:52.182Z,54.8
2018-12-22T09:24:41.874Z,54.8
2018-12-22T09:25:32.187Z,54.8
2018-12-22T09:26:22.047Z,54.8
2018-12-22T09:27:11.747Z,54.8
2018-12-22T09:28:02.087Z,54.8
2018-12-22T09:28:51.875Z,54.8
2018-12-22T09:29:41.939Z,54.8
2018-12-22T09:30:31.988Z,54.8
2018-12-22T09:31:21.205Z,54.8
2018-12-22T09:32:12.107Z,54.8
2018-12-22T09:33:02.451Z,54.8
2018-12-22T09:33:51.712Z,54.8
2018-12-22T09:34:42.259Z,54.7
2018-12-22T09:35:32.051Z,54.7
2018-12-22T09:36:22.373Z,54.7
2018-12-22T09:37:12.789Z,54.7
2018-12-22T09:38:02.219Z,54.7
2018-12-22T09:38:52.807Z,54.7
2018-12-22T09:39:42.886Z,54.7
2018-12-22T09:40:32.661Z,54.7
2018-12-22T09:41:22.252Z,54.7
2018-12-22T09:42:12.351Z,54.7
2018-12-22T09:43:02.620Z,54.6
2018-12-22T09:43:52.987Z,54.6
2018-12-22T09:44:42.476Z,54.6
2018-12-22T09:45:32.465Z,54.6
2018-12-22T09:46:22.494Z,54.6
2018-12-22T09:47:12.856Z,54.6
2018-12-22T09:48:02.931Z,54.6
2018-12-22T09:48:53.498Z,54.6
2018-12-22T09:49:43.016Z,54.6
2018-12-22T09:50:32.830Z,54.6
2018-12-22T09:51:23.406Z,54.6
2018-12-22T09:52:12.930Z,54.6
2018-12-22T09:53:04.150Z,54.6
2018-12-22T09:53:53.850Z,54.6
2018-12-22T09:54:43.903Z,54.5
2018-12-22T09:55:33.965Z,54.5
2018-12-22T09:56:23.818Z,54.5
2018-12-22T09:57:13.836Z,54.5
2018-12-22T09:58:03.878Z,54.5
2018-12-22T09:58:53.917Z,54.5
2018-12-22T09:59:43.950Z,54.5
2018-12-22T10:00:33.465Z,54.4
2018-12-22T10:01:24.072Z,54.4
2018-12-22T10:02:14.412Z,54.4
2018-12-22T10:03:04.468Z,54.4
2018-12-22T10:03:54.237Z,54.4
2018-12-22T10:04:44.022Z,54.4
2018-12-22T10:05:34.344Z,54.4
2018-12-22T10:06:24.724Z,54.4
2018-12-22T10:07:14.504Z,54.4
2018-12-22T10:08:04.806Z,54.4
2018-12-22T10:08:54.587Z,54.4
2018-12-22T10:09:44.687Z,54.4
2018-12-22T10:10:34.962Z,54.4
2018-12-22T10:11:24.469Z,54.3
2018-12-22T10:12:14.531Z,54.3
2018-12-22T10:13:04.315Z,54.3
2018-12-22T10:13:54.926Z,54.3
2018-12-22T10:14:44.426Z,54.3
2018-12-22T10:15:35.424Z,54.3
2018-12-22T10:16:25.480Z,54.3
2018-12-22T10:17:15.429Z,54.3
2018-12-22T10:18:05.614Z,54.3
2018-12-22T10:18:55.058Z,54.3
2018-12-22T10:19:45.591Z,54.3
2018-12-22T10:20:35.376Z,54.3
2018-12-22T10:21:25.969Z,54.3
2018-12-22T10:22:17.796Z,54.3
2018-12-22T10:23:06.074Z,54.3
2018-12-22T10:23:55.601Z,54.2
2018-12-22T10:24:45.410Z,54.2
2018-12-22T10:25:36.249Z,54.3
2018-12-22T10:26:26.295Z,54.2
2018-12-22T10:27:16.098Z,54.2
2018-12-22T10:28:05.902Z,54.2
2018-12-22T10:28:56.198Z,54.2
2018-12-22T10:29:45.453Z,54.1
2018-12-22T10:30:35.775Z,54.2
2018-12-22T10:31:26.121Z,54.1
2018-12-22T10:32:15.882Z,54.1
2018-12-22T10:33:05.945Z,54.1
2018-12-22T10:33:56.407Z,54.1
2018-12-22T10:34:46.620Z,54.1
2018-12-22T10:35:36.498Z,54.1
2018-12-22T10:36:26.741Z,54.1
2018-12-22T10:37:16.522Z,54.1
2018-12-22T10:38:06.022Z,54.1
2018-12-22T10:38:56.891Z,54.1
2018-12-22T10:39:46.685Z,54.1
2018-12-22T10:40:36.580Z,54.1
2018-12-22T10:41:26.795Z,54.1
2018-12-22T10:42:16.909Z,54
2018-12-22T10:43:06.179Z,54.1
2018-12-22T10:43:56.768Z,54
2018-12-22T10:44:47.077Z,54
2018-12-22T10:45:36.817Z,54
2018-12-22T10:46:26.942Z,54
2018-12-22T10:47:17.185Z,54
2018-12-22T10:48:07.141Z,54
2018-12-22T10:48:57.302Z,53.9
2018-12-22T10:49:47.167Z,53.9
2018-12-22T10:50:37.699Z,53.9
2018-12-22T10:51:27.852Z,53.9
2018-12-22T10:52:16.794Z,53.9
2018-12-22T10:53:06.852Z,53.9
2018-12-22T10:53:57.447Z,53.9
2018-12-22T10:54:47.489Z,53.9
2018-12-22T10:55:37.571Z,53.9
2018-12-22T10:56:27.060Z,53.9
2018-12-22T10:57:17.677Z,53.9
2018-12-22T10:58:07.753Z,53.9
2018-12-22T10:58:57.570Z,53.9
2018-12-22T10:59:47.565Z,53.9
2018-12-22T11:00:37.905Z,53.9
2018-12-22T11:01:29.930Z,53.8
2018-12-22T11:02:17.459Z,53.8
2018-12-22T11:03:08.075Z,53.8
2018-12-22T11:03:57.844Z,53.8
2018-12-22T11:04:48.232Z,53.8
2018-12-22T11:05:38.232Z,53.8
2018-12-22T11:06:28.277Z,53.8
2018-12-22T11:07:17.799Z,53.8
2018-12-22T11:08:08.147Z,53.8
2018-12-22T11:08:58.244Z,53.8
2018-12-22T11:09:47.980Z,53.8
2018-12-22T11:10:38.937Z,53.8
2018-12-22T11:11:28.364Z,53.8
2018-12-22T11:12:18.699Z,53.8
2018-12-22T11:13:08.471Z,53.7
2018-12-22T11:13:58.547Z,53.7
2018-12-22T11:14:49.166Z,53.7
2018-12-22T11:15:39.101Z,53.7
2018-12-22T11:16:28.776Z,53.7
2018-12-22T11:17:18.216Z,53.7
2018-12-22T11:18:08.759Z,53.6
2018-12-22T11:18:59.610Z,53.6
2018-12-22T11:19:49.397Z,53.6
2018-12-22T11:20:39.719Z,53.6
2018-12-22T11:21:29.790Z,53.6
2018-12-22T11:22:19.852Z,53.6
2018-12-22T11:23:09.930Z,53.6
2018-12-22T11:23:59.679Z,53.6
2018-12-22T11:24:49.464Z,53.6
2018-12-22T11:25:39.788Z,53.6
2018-12-22T11:26:30.123Z,53.6
2018-12-22T11:27:20.195Z,53.6
2018-12-22T11:28:09.683Z,53.6
2018-12-22T11:28:59.740Z,53.6
2018-12-22T11:29:49.795Z,53.5
2018-12-22T11:30:39.870Z,53.5
2018-12-22T11:31:38.265Z,53.5
2018-12-22T11:32:20.242Z,53.5
2018-12-22T11:33:10.326Z,53.5
2018-12-22T11:34:00.100Z,53.5
2018-12-22T11:34:50.250Z,53.5
2018-12-22T11:35:40.487Z,53.5
2018-12-22T11:36:30.247Z,53.4
2018-12-22T11:37:21.222Z,53.5
2018-12-22T11:38:10.360Z,53.4
2018-12-22T11:39:00.824Z,53.4
2018-12-22T11:39:51.040Z,53.4
2018-12-22T11:40:41.132Z,53.4
2018-12-22T11:41:30.352Z,53.4
2018-12-22T11:42:20.936Z,53.4
2018-12-22T11:43:11.007Z,53.4
2018-12-22T11:44:00.754Z,53.4
2018-12-22T11:44:50.804Z,53.4
2018-12-22T11:45:41.467Z,53.4
2018-12-22T11:46:30.942Z,53.4
2018-12-22T11:47:21.542Z,53.4
2018-12-22T11:48:11.604Z,53.4
2018-12-22T11:49:01.376Z,53.3
2018-12-22T11:49:51.428Z,53.3
2018-12-22T11:50:42.005Z,53.4
2018-12-22T11:51:31.349Z,53.3
2018-12-22T11:52:21.329Z,53.3
2018-12-22T11:53:11.663Z,53.3
2018-12-22T11:54:01.997Z,53.3
2018-12-22T11:54:51.484Z,53.3
2018-12-22T11:55:41.564Z,53.3
2018-12-22T11:56:31.694Z,53.3
2018-12-22T11:57:21.951Z,53.3
2018-12-22T11:58:11.718Z,53.3
2018-12-22T11:59:02.168Z,53.3
2018-12-22T11:59:52.411Z,53.2
2018-12-22T12:00:42.196Z,53.3
2018-12-22T12:01:31.663Z,53.2
2018-12-22T12:02:22.283Z,53.2
2018-12-22T12:03:12.356Z,53.2
2018-12-22T12:04:02.410Z,53.2
2018-12-22T12:04:52.464Z,53.2